sensor_id;sensor_type;location;lat;lon;timestamp;temperature;humidity
73665;DHT22;61964;52.052;4.474;2023-07-29T00:00:48;19.94;72.32
73665;DHT22;61964;52.052;4.474;2023-07-29T00:03:13;19.90;72.44
73665;DHT22;61964;52.052;4.474;2023-07-29T00:05:40;19.86;72.67
73665;DHT22;61964;52.052;4.474;2023-07-29T00:08:06;19.80;72.39
73665;DHT22;61964;52.052;4.474;2023-07-29T00:10:34;19.77;72.24
73665;DHT22;61964;52.052;4.474;2023-07-29T00:13:01;19.76;72.82
73665;DHT22;61964;52.052;4.474;2023-07-29T00:15:26;19.73;72.23
73665;DHT22;61964;52.052;4.474;2023-07-29T00:17:52;19.66;72.36
73665;DHT22;61964;52.052;4.474;2023-07-29T00:20:18;19.60;72.58
73665;DHT22;61964;52.052;4.474;2023-07-29T00:22:56;19.56;71.84
73665;DHT22;61964;52.052;4.474;2023-07-29T00:25:23;19.53;71.90
73665;DHT22;61964;52.052;4.474;2023-07-29T00:27:49;19.49;71.50
73665;DHT22;61964;52.052;4.474;2023-07-29T00:30:15;19.43;71.98
73665;DHT22;61964;52.052;4.474;2023-07-29T00:32:41;19.43;72.32
73665;DHT22;61964;52.052;4.474;2023-07-29T00:35:07;19.32;72.54
73665;DHT22;61964;52.052;4.474;2023-07-29T00:37:32;19.26;72.48
73665;DHT22;61964;52.052;4.474;2023-07-29T00:39:58;19.28;73.05
73665;DHT22;61964;52.052;4.474;2023-07-29T00:42:24;19.23;72.59
73665;DHT22;61964;52.052;4.474;2023-07-29T00:44:50;19.25;72.52
73665;DHT22;61964;52.052;4.474;2023-07-29T00:47:16;19.18;72.50
73665;DHT22;61964;52.052;4.474;2023-07-29T00:49:45;19.19;72.82
73665;DHT22;61964;52.052;4.474;2023-07-29T00:52:12;19.18;73.19
73665;DHT22;61964;52.052;4.474;2023-07-29T00:54:41;19.14;73.35
73665;DHT22;61964;52.052;4.474;2023-07-29T00:57:10;19.16;73.56
73665;DHT22;61964;52.052;4.474;2023-07-29T00:59:37;19.15;73.56
73665;DHT22;61964;52.052;4.474;2023-07-29T01:02:03;19.15;73.85
73665;DHT22;61964;52.052;4.474;2023-07-29T01:04:31;19.18;73.73
73665;DHT22;61964;52.052;4.474;2023-07-29T01:07:19;19.19;73.78
73665;DHT22;61964;52.052;4.474;2023-07-29T01:13:06;19.18;74.23
73665;DHT22;61964;52.052;4.474;2023-07-29T01:15:55;19.15;73.88
73665;DHT22;61964;52.052;4.474;2023-07-29T01:18:29;19.14;74.34
73665;DHT22;61964;52.052;4.474;2023-07-29T01:21:03;19.15;74.24
73665;DHT22;61964;52.052;4.474;2023-07-29T01:23:34;19.11;74.27
73665;DHT22;61964;52.052;4.474;2023-07-29T01:26:00;19.12;74.11
73665;DHT22;61964;52.052;4.474;2023-07-29T01:28:26;19.12;74.60
73665;DHT22;61964;52.052;4.474;2023-07-29T01:33:56;19.15;74.24
73665;DHT22;61964;52.052;4.474;2023-07-29T01:36:28;19.14;74.43
73665;DHT22;61964;52.052;4.474;2023-07-29T01:38:57;19.07;74.82
73665;DHT22;61964;52.052;4.474;2023-07-29T01:41:24;19.04;75.03
73665;DHT22;61964;52.052;4.474;2023-07-29T01:43:52;19.07;75.12
73665;DHT22;61964;52.052;4.474;2023-07-29T01:46:18;19.08;74.88
73665;DHT22;61964;52.052;4.474;2023-07-29T01:48:44;19.05;74.97
73665;DHT22;61964;52.052;4.474;2023-07-29T01:51:12;19.04;75.16
73665;DHT22;61964;52.052;4.474;2023-07-29T01:53:37;19.04;75.31
73665;DHT22;61964;52.052;4.474;2023-07-29T01:56:03;19.00;75.57
73665;DHT22;61964;52.052;4.474;2023-07-29T01:58:29;19.01;75.02
73665;DHT22;61964;52.052;4.474;2023-07-29T02:00:55;18.98;75.27
73665;DHT22;61964;52.052;4.474;2023-07-29T02:03:21;19.01;75.35
73665;DHT22;61964;52.052;4.474;2023-07-29T02:05:46;18.98;75.17
73665;DHT22;61964;52.052;4.474;2023-07-29T02:08:12;18.97;75.11
73665;DHT22;61964;52.052;4.474;2023-07-29T02:10:37;18.95;75.03
73665;DHT22;61964;52.052;4.474;2023-07-29T02:13:04;18.91;75.21
73665;DHT22;61964;52.052;4.474;2023-07-29T02:15:29;18.94;75.27
73665;DHT22;61964;52.052;4.474;2023-07-29T02:17:55;18.95;75.06
73665;DHT22;61964;52.052;4.474;2023-07-29T02:20:21;18.95;75.25
73665;DHT22;61964;52.052;4.474;2023-07-29T02:22:47;18.94;75.24
73665;DHT22;61964;52.052;4.474;2023-07-29T02:25:14;18.92;75.17
73665;DHT22;61964;52.052;4.474;2023-07-29T02:27:40;18.92;74.91
73665;DHT22;61964;52.052;4.474;2023-07-29T02:30:06;18.88;75.07
73665;DHT22;61964;52.052;4.474;2023-07-29T02:32:32;18.87;75.26
73665;DHT22;61964;52.052;4.474;2023-07-29T02:34:58;18.87;74.94
73665;DHT22;61964;52.052;4.474;2023-07-29T02:37:23;18.92;75.22
73665;DHT22;61964;52.052;4.474;2023-07-29T02:39:49;18.94;75.54
73665;DHT22;61964;52.052;4.474;2023-07-29T02:42:15;18.95;74.85
73665;DHT22;61964;52.052;4.474;2023-07-29T02:44:41;18.88;75.52
73665;DHT22;61964;52.052;4.474;2023-07-29T02:47:07;18.94;75.18
73665;DHT22;61964;52.052;4.474;2023-07-29T02:49:33;18.88;75.36
73665;DHT22;61964;52.052;4.474;2023-07-29T02:51:58;18.90;74.80
73665;DHT22;61964;52.052;4.474;2023-07-29T02:54:24;18.85;75.03
73665;DHT22;61964;52.052;4.474;2023-07-29T02:56:50;18.88;75.13
73665;DHT22;61964;52.052;4.474;2023-07-29T02:59:16;18.85;75.12
73665;DHT22;61964;52.052;4.474;2023-07-29T03:01:42;18.84;75.27
73665;DHT22;61964;52.052;4.474;2023-07-29T03:04:08;18.87;75.44
73665;DHT22;61964;52.052;4.474;2023-07-29T03:06:34;18.84;75.18
73665;DHT22;61964;52.052;4.474;2023-07-29T03:08:59;18.80;75.30
73665;DHT22;61964;52.052;4.474;2023-07-29T03:11:25;18.80;75.62
73665;DHT22;61964;52.052;4.474;2023-07-29T03:13:51;18.87;75.47
73665;DHT22;61964;52.052;4.474;2023-07-29T03:16:17;18.83;75.30
73665;DHT22;61964;52.052;4.474;2023-07-29T03:18:44;18.90;75.37
73665;DHT22;61964;52.052;4.474;2023-07-29T03:21:10;18.91;75.39
73665;DHT22;61964;52.052;4.474;2023-07-29T03:23:37;18.95;75.42
73665;DHT22;61964;52.052;4.474;2023-07-29T03:26:04;18.94;75.65
73665;DHT22;61964;52.052;4.474;2023-07-29T03:28:40;19.02;74.86
73665;DHT22;61964;52.052;4.474;2023-07-29T03:31:06;19.07;74.60
73665;DHT22;61964;52.052;4.474;2023-07-29T03:33:34;19.02;74.73
73665;DHT22;61964;52.052;4.474;2023-07-29T03:36:00;19.00;74.92
73665;DHT22;61964;52.052;4.474;2023-07-29T03:38:26;19.04;74.75
73665;DHT22;61964;52.052;4.474;2023-07-29T03:40:51;19.04;74.83
73665;DHT22;61964;52.052;4.474;2023-07-29T03:43:19;19.10;74.54
73665;DHT22;61964;52.052;4.474;2023-07-29T03:45:45;19.12;74.32
73665;DHT22;61964;52.052;4.474;2023-07-29T03:48:10;19.11;74.55
73665;DHT22;61964;52.052;4.474;2023-07-29T03:50:36;19.15;74.75
73665;DHT22;61964;52.052;4.474;2023-07-29T03:53:03;19.16;74.33
73665;DHT22;61964;52.052;4.474;2023-07-29T03:55:29;19.11;74.74
73665;DHT22;61964;52.052;4.474;2023-07-29T03:57:56;19.15;74.80
73665;DHT22;61964;52.052;4.474;2023-07-29T04:00:22;19.15;74.69
73665;DHT22;61964;52.052;4.474;2023-07-29T04:02:48;19.23;74.46
73665;DHT22;61964;52.052;4.474;2023-07-29T04:05:14;19.23;74.09
73665;DHT22;61964;52.052;4.474;2023-07-29T04:07:40;19.22;74.52
73665;DHT22;61964;52.052;4.474;2023-07-29T04:10:07;19.22;74.66
73665;DHT22;61964;52.052;4.474;2023-07-29T04:12:33;19.23;74.21
73665;DHT22;61964;52.052;4.474;2023-07-29T04:14:58;19.22;74.08
73665;DHT22;61964;52.052;4.474;2023-07-29T04:17:24;19.21;74.21
73665;DHT22;61964;52.052;4.474;2023-07-29T04:19:50;19.18;74.67
73665;DHT22;61964;52.052;4.474;2023-07-29T04:22:16;19.16;74.45
73665;DHT22;61964;52.052;4.474;2023-07-29T04:24:42;19.15;74.46
73665;DHT22;61964;52.052;4.474;2023-07-29T04:27:08;19.15;74.54
73665;DHT22;61964;52.052;4.474;2023-07-29T04:29:34;19.15;74.96
73665;DHT22;61964;52.052;4.474;2023-07-29T04:32:02;19.22;74.34
73665;DHT22;61964;52.052;4.474;2023-07-29T04:34:28;19.23;74.50
73665;DHT22;61964;52.052;4.474;2023-07-29T04:36:54;19.18;74.66
73665;DHT22;61964;52.052;4.474;2023-07-29T04:39:19;19.22;74.70
73665;DHT22;61964;52.052;4.474;2023-07-29T04:41:45;19.19;74.77
73665;DHT22;61964;52.052;4.474;2023-07-29T04:44:11;19.21;74.74
73665;DHT22;61964;52.052;4.474;2023-07-29T04:46:37;19.22;74.55
73665;DHT22;61964;52.052;4.474;2023-07-29T04:49:04;19.22;74.93
73665;DHT22;61964;52.052;4.474;2023-07-29T04:51:31;19.25;74.76
73665;DHT22;61964;52.052;4.474;2023-07-29T04:53:58;19.22;74.62
73665;DHT22;61964;52.052;4.474;2023-07-29T04:56:24;19.25;74.91
73665;DHT22;61964;52.052;4.474;2023-07-29T04:58:49;19.23;74.76
73665;DHT22;61964;52.052;4.474;2023-07-29T05:01:18;19.18;75.08
73665;DHT22;61964;52.052;4.474;2023-07-29T05:03:44;19.19;75.29
73665;DHT22;61964;52.052;4.474;2023-07-29T05:06:10;19.26;75.10
73665;DHT22;61964;52.052;4.474;2023-07-29T05:08:36;19.23;75.21
73665;DHT22;61964;52.052;4.474;2023-07-29T05:11:02;19.32;75.06
73665;DHT22;61964;52.052;4.474;2023-07-29T05:13:27;19.35;74.61
73665;DHT22;61964;52.052;4.474;2023-07-29T05:15:53;19.29;75.22
73665;DHT22;61964;52.052;4.474;2023-07-29T05:18:19;19.33;75.11
73665;DHT22;61964;52.052;4.474;2023-07-29T05:20:45;19.36;75.05
73665;DHT22;61964;52.052;4.474;2023-07-29T05:23:11;19.41;75.18
73665;DHT22;61964;52.052;4.474;2023-07-29T05:25:37;19.36;75.39
73665;DHT22;61964;52.052;4.474;2023-07-29T05:28:03;19.39;75.01
73665;DHT22;61964;52.052;4.474;2023-07-29T05:30:30;19.38;75.19
73665;DHT22;61964;52.052;4.474;2023-07-29T05:33:05;19.42;75.68
73665;DHT22;61964;52.052;4.474;2023-07-29T05:35:34;19.43;75.30
73665;DHT22;61964;52.052;4.474;2023-07-29T05:37:59;19.49;75.44
73665;DHT22;61964;52.052;4.474;2023-07-29T05:40:25;19.52;75.35
73665;DHT22;61964;52.052;4.474;2023-07-29T05:42:51;19.56;75.41
73665;DHT22;61964;52.052;4.474;2023-07-29T05:45:16;19.62;74.95
73665;DHT22;61964;52.052;4.474;2023-07-29T05:47:42;19.60;75.20
73665;DHT22;61964;52.052;4.474;2023-07-29T05:50:09;19.65;75.27
73665;DHT22;61964;52.052;4.474;2023-07-29T05:52:34;19.67;75.31
73665;DHT22;61964;52.052;4.474;2023-07-29T05:55:00;19.69;75.20
73665;DHT22;61964;52.052;4.474;2023-07-29T05:57:26;19.70;75.56
73665;DHT22;61964;52.052;4.474;2023-07-29T05:59:52;19.73;75.14
73665;DHT22;61964;52.052;4.474;2023-07-29T06:02:18;19.79;75.42
73665;DHT22;61964;52.052;4.474;2023-07-29T06:04:43;19.86;75.08
73665;DHT22;61964;52.052;4.474;2023-07-29T06:07:09;19.87;75.43
73665;DHT22;61964;52.052;4.474;2023-07-29T06:09:35;19.94;74.98
73665;DHT22;61964;52.052;4.474;2023-07-29T06:12:01;19.94;74.90
73665;DHT22;61964;52.052;4.474;2023-07-29T06:14:27;19.91;75.19
73665;DHT22;61964;52.052;4.474;2023-07-29T06:16:52;19.96;75.00
73665;DHT22;61964;52.052;4.474;2023-07-29T06:19:19;20.01;74.78
73665;DHT22;61964;52.052;4.474;2023-07-29T06:21:45;20.01;75.01
73665;DHT22;61964;52.052;4.474;2023-07-29T06:24:10;20.03;76.03
73665;DHT22;61964;52.052;4.474;2023-07-29T06:26:36;19.96;77.13
73665;DHT22;61964;52.052;4.474;2023-07-29T06:29:02;19.83;77.66
73665;DHT22;61964;52.052;4.474;2023-07-29T06:31:28;19.72;78.51
73665;DHT22;61964;52.052;4.474;2023-07-29T06:33:55;19.72;79.10
73665;DHT22;61964;52.052;4.474;2023-07-29T06:36:21;19.73;79.16
73665;DHT22;61964;52.052;4.474;2023-07-29T06:38:47;19.76;79.19
73665;DHT22;61964;52.052;4.474;2023-07-29T06:41:13;19.82;79.12
73665;DHT22;61964;52.052;4.474;2023-07-29T06:43:38;19.84;79.11
73665;DHT22;61964;52.052;4.474;2023-07-29T06:46:04;19.84;79.09
73665;DHT22;61964;52.052;4.474;2023-07-29T06:48:30;19.90;79.29
73665;DHT22;61964;52.052;4.474;2023-07-29T06:50:56;20.03;79.22
73665;DHT22;61964;52.052;4.474;2023-07-29T06:53:26;20.06;79.38
73665;DHT22;61964;52.052;4.474;2023-07-29T06:55:53;20.18;79.39
73665;DHT22;61964;52.052;4.474;2023-07-29T06:58:19;20.32;78.72
73665;DHT22;61964;52.052;4.474;2023-07-29T07:00:45;20.34;78.77
73665;DHT22;61964;52.052;4.474;2023-07-29T07:03:10;20.32;77.81
73665;DHT22;61964;52.052;4.474;2023-07-29T07:05:36;20.27;77.66
73665;DHT22;61964;52.052;4.474;2023-07-29T07:08:02;20.28;77.94
73665;DHT22;61964;52.052;4.474;2023-07-29T07:10:28;20.28;76.74
73665;DHT22;61964;52.052;4.474;2023-07-29T07:12:54;20.30;76.77
73665;DHT22;61964;52.052;4.474;2023-07-29T07:15:19;20.35;76.64
73665;DHT22;61964;52.052;4.474;2023-07-29T07:17:45;20.38;75.72
73665;DHT22;61964;52.052;4.474;2023-07-29T07:20:11;20.48;75.22
73665;DHT22;61964;52.052;4.474;2023-07-29T07:22:37;20.64;75.19
73665;DHT22;61964;52.052;4.474;2023-07-29T07:25:03;20.81;74.40
73665;DHT22;61964;52.052;4.474;2023-07-29T07:27:28;21.03;74.45
73665;DHT22;61964;52.052;4.474;2023-07-29T07:29:54;21.26;73.66
73665;DHT22;61964;52.052;4.474;2023-07-29T07:32:20;21.40;70.87
73665;DHT22;61964;52.052;4.474;2023-07-29T07:34:46;21.29;70.76
73665;DHT22;61964;52.052;4.474;2023-07-29T07:37:11;21.26;71.99
73665;DHT22;61964;52.052;4.474;2023-07-29T07:39:37;21.19;71.71
73665;DHT22;61964;52.052;4.474;2023-07-29T07:42:03;21.10;70.43
73665;DHT22;61964;52.052;4.474;2023-07-29T07:44:29;21.03;71.28
73665;DHT22;61964;52.052;4.474;2023-07-29T07:46:54;20.95;71.07
73665;DHT22;61964;52.052;4.474;2023-07-29T07:49:20;20.91;70.57
73665;DHT22;61964;52.052;4.474;2023-07-29T07:51:46;20.88;70.06
73665;DHT22;61964;52.052;4.474;2023-07-29T07:54:11;20.89;69.28
73665;DHT22;61964;52.052;4.474;2023-07-29T07:56:37;20.89;70.47
73665;DHT22;61964;52.052;4.474;2023-07-29T07:59:03;20.96;69.62
73665;DHT22;61964;52.052;4.474;2023-07-29T08:01:34;20.96;70.26
73665;DHT22;61964;52.052;4.474;2023-07-29T08:04:01;20.99;69.96
73665;DHT22;61964;52.052;4.474;2023-07-29T08:06:26;21.06;69.97
73665;DHT22;61964;52.052;4.474;2023-07-29T08:08:52;21.20;69.54
73665;DHT22;61964;52.052;4.474;2023-07-29T08:11:18;21.36;69.32
73665;DHT22;61964;52.052;4.474;2023-07-29T08:13:43;21.37;69.82
73665;DHT22;61964;52.052;4.474;2023-07-29T08:16:09;21.43;67.57
73665;DHT22;61964;52.052;4.474;2023-07-29T08:18:35;21.29;67.89
73665;DHT22;61964;52.052;4.474;2023-07-29T08:21:01;21.26;68.79
73665;DHT22;61964;52.052;4.474;2023-07-29T08:23:31;21.29;67.48
73665;DHT22;61964;52.052;4.474;2023-07-29T08:25:59;21.30;68.75
73665;DHT22;61964;52.052;4.474;2023-07-29T08:28:35;21.34;68.64
73665;DHT22;61964;52.052;4.474;2023-07-29T08:31:01;21.33;67.19
73665;DHT22;61964;52.052;4.474;2023-07-29T08:33:28;21.53;67.51
73665;DHT22;61964;52.052;4.474;2023-07-29T08:35:54;21.75;66.30
73665;DHT22;61964;52.052;4.474;2023-07-29T08:38:21;21.97;65.55
73665;DHT22;61964;52.052;4.474;2023-07-29T08:40:56;22.06;66.36
73665;DHT22;61964;52.052;4.474;2023-07-29T08:43:29;22.08;65.95
73665;DHT22;61964;52.052;4.474;2023-07-29T08:45:59;22.11;67.40
73665;DHT22;61964;52.052;4.474;2023-07-29T08:48:44;22.13;64.63
73665;DHT22;61964;52.052;4.474;2023-07-29T08:51:12;22.05;66.03
73665;DHT22;61964;52.052;4.474;2023-07-29T08:53:39;22.04;65.85
73665;DHT22;61964;52.052;4.474;2023-07-29T08:56:06;21.97;66.02
73665;DHT22;61964;52.052;4.474;2023-07-29T08:58:33;21.92;65.60
73665;DHT22;61964;52.052;4.474;2023-07-29T09:00:59;21.87;65.82
73665;DHT22;61964;52.052;4.474;2023-07-29T09:03:25;21.74;66.97
73665;DHT22;61964;52.052;4.474;2023-07-29T09:05:52;21.54;69.60
73665;DHT22;61964;52.052;4.474;2023-07-29T09:08:19;21.19;70.36
73665;DHT22;61964;52.052;4.474;2023-07-29T09:10:46;20.79;74.15
73665;DHT22;61964;52.052;4.474;2023-07-29T09:13:12;20.22;76.12
73665;DHT22;61964;52.052;4.474;2023-07-29T09:15:38;19.98;77.22
73665;DHT22;61964;52.052;4.474;2023-07-29T09:18:11;19.83;78.69
73665;DHT22;61964;52.052;4.474;2023-07-29T09:20:37;19.86;79.15
73665;DHT22;61964;52.052;4.474;2023-07-29T09:23:03;20.01;80.11
73665;DHT22;61964;52.052;4.474;2023-07-29T09:25:29;20.20;80.31
73665;DHT22;61964;52.052;4.474;2023-07-29T09:28:07;20.41;80.69
73665;DHT22;61964;52.052;4.474;2023-07-29T09:30:32;20.55;80.07
73665;DHT22;61964;52.052;4.474;2023-07-29T09:32:59;20.55;79.72
73665;DHT22;61964;52.052;4.474;2023-07-29T09:35:29;20.58;79.80
73665;DHT22;61964;52.052;4.474;2023-07-29T09:37:55;20.51;78.12
73665;DHT22;61964;52.052;4.474;2023-07-29T09:40:21;20.51;79.01
73665;DHT22;61964;52.052;4.474;2023-07-29T09:42:54;20.61;79.06
73665;DHT22;61964;52.052;4.474;2023-07-29T09:45:24;20.68;79.07
73665;DHT22;61964;52.052;4.474;2023-07-29T09:47:53;20.62;77.68
73665;DHT22;61964;52.052;4.474;2023-07-29T09:50:23;20.51;75.83
73665;DHT22;61964;52.052;4.474;2023-07-29T09:52:51;20.44;77.53
73665;DHT22;61964;52.052;4.474;2023-07-29T09:55:18;20.44;77.28
73665;DHT22;61964;52.052;4.474;2023-07-29T09:57:45;20.44;77.74
73665;DHT22;61964;52.052;4.474;2023-07-29T10:00:12;20.40;77.08
73665;DHT22;61964;52.052;4.474;2023-07-29T10:02:40;20.42;77.23
73665;DHT22;61964;52.052;4.474;2023-07-29T10:05:07;20.37;77.61
73665;DHT22;61964;52.052;4.474;2023-07-29T10:07:37;20.47;77.18
73665;DHT22;61964;52.052;4.474;2023-07-29T10:10:08;20.41;76.66
73665;DHT22;61964;52.052;4.474;2023-07-29T10:12:35;20.37;77.27
73665;DHT22;61964;52.052;4.474;2023-07-29T10:15:05;20.41;77.67
73665;DHT22;61964;52.052;4.474;2023-07-29T10:17:36;20.42;77.05
73665;DHT22;61964;52.052;4.474;2023-07-29T10:20:08;20.40;77.04
73665;DHT22;61964;52.052;4.474;2023-07-29T10:22:41;20.41;77.93
73665;DHT22;61964;52.052;4.474;2023-07-29T10:28:07;20.42;78.34
73665;DHT22;61964;52.052;4.474;2023-07-29T10:30:34;20.51;78.27
73665;DHT22;61964;52.052;4.474;2023-07-29T10:33:03;20.49;77.14
73665;DHT22;61964;52.052;4.474;2023-07-29T10:35:32;20.44;77.98
73665;DHT22;61964;52.052;4.474;2023-07-29T10:37:59;20.44;77.89
73665;DHT22;61964;52.052;4.474;2023-07-29T10:40:25;20.35;77.40
73665;DHT22;61964;52.052;4.474;2023-07-29T10:43:10;20.34;77.52
73665;DHT22;61964;52.052;4.474;2023-07-29T10:45:37;20.35;78.34
73665;DHT22;61964;52.052;4.474;2023-07-29T10:51:34;20.62;78.38
73665;DHT22;61964;52.052;4.474;2023-07-29T10:54:10;20.75;76.97
73665;DHT22;61964;52.052;4.474;2023-07-29T10:56:39;20.92;77.47
73665;DHT22;61964;52.052;4.474;2023-07-29T10:59:32;21.14;76.66
73665;DHT22;61964;52.052;4.474;2023-07-29T11:02:00;21.30;75.63
73665;DHT22;61964;52.052;4.474;2023-07-29T11:04:28;21.41;75.92
73665;DHT22;61964;52.052;4.474;2023-07-29T11:07:25;21.50;75.30
73665;DHT22;61964;52.052;4.474;2023-07-29T11:10:03;21.55;75.63
73665;DHT22;61964;52.052;4.474;2023-07-29T11:15:31;21.60;74.54
73665;DHT22;61964;52.052;4.474;2023-07-29T11:18:00;21.53;74.85
73665;DHT22;61964;52.052;4.474;2023-07-29T11:20:46;21.53;72.23
73665;DHT22;61964;52.052;4.474;2023-07-29T11:23:13;21.39;72.53
73665;DHT22;61964;52.052;4.474;2023-07-29T11:25:39;21.37;74.08
73665;DHT22;61964;52.052;4.474;2023-07-29T11:28:05;21.33;73.75
73665;DHT22;61964;52.052;4.474;2023-07-29T11:30:30;21.37;74.86
73665;DHT22;61964;52.052;4.474;2023-07-29T11:32:58;21.39;74.39
73665;DHT22;61964;52.052;4.474;2023-07-29T11:35:24;21.34;74.37
73665;DHT22;61964;52.052;4.474;2023-07-29T11:37:51;21.41;73.41
73665;DHT22;61964;52.052;4.474;2023-07-29T11:40:22;21.49;72.39
73665;DHT22;61964;52.052;4.474;2023-07-29T11:42:49;21.53;72.28
73665;DHT22;61964;52.052;4.474;2023-07-29T11:45:19;21.53;72.84
73665;DHT22;61964;52.052;4.474;2023-07-29T11:47:46;21.73;73.70
73665;DHT22;61964;52.052;4.474;2023-07-29T11:50:13;22.02;71.19
73665;DHT22;61964;52.052;4.474;2023-07-29T11:52:43;22.12;72.52
73665;DHT22;61964;52.052;4.474;2023-07-29T11:55:11;22.33;70.82
73665;DHT22;61964;52.052;4.474;2023-07-29T11:57:38;22.45;71.53
73665;DHT22;61964;52.052;4.474;2023-07-29T12:00:07;22.45;70.31
73665;DHT22;61964;52.052;4.474;2023-07-29T12:02:38;22.29;69.30
73665;DHT22;61964;52.052;4.474;2023-07-29T12:05:06;22.19;69.77
73665;DHT22;61964;52.052;4.474;2023-07-29T12:07:32;22.06;70.56
73665;DHT22;61964;52.052;4.474;2023-07-29T12:10:03;21.92;70.65
73665;DHT22;61964;52.052;4.474;2023-07-29T12:12:29;21.82;72.90
73665;DHT22;61964;52.052;4.474;2023-07-29T12:14:55;21.87;72.57
73665;DHT22;61964;52.052;4.474;2023-07-29T12:17:21;22.74;69.76
73665;DHT22;61964;52.052;4.474;2023-07-29T12:19:47;23.11;68.93
73665;DHT22;61964;52.052;4.474;2023-07-29T12:22:19;23.61;67.36
73665;DHT22;61964;52.052;4.474;2023-07-29T12:24:45;24.47;65.20
73665;DHT22;61964;52.052;4.474;2023-07-29T12:27:12;24.56;63.71
73665;DHT22;61964;52.052;4.474;2023-07-29T12:29:44;24.12;63.59
73665;DHT22;61964;52.052;4.474;2023-07-29T12:32:12;23.65;65.64
73665;DHT22;61964;52.052;4.474;2023-07-29T12:34:38;23.65;64.12
73665;DHT22;61964;52.052;4.474;2023-07-29T12:37:06;24.08;64.49
73665;DHT22;61964;52.052;4.474;2023-07-29T12:39:34;24.09;64.72
73665;DHT22;61964;52.052;4.474;2023-07-29T12:42:02;24.37;64.39
73665;DHT22;61964;52.052;4.474;2023-07-29T12:44:34;24.88;60.26
73665;DHT22;61964;52.052;4.474;2023-07-29T12:47:05;25.23;60.73
73665;DHT22;61964;52.052;4.474;2023-07-29T12:49:31;25.70;58.53
73665;DHT22;61964;52.052;4.474;2023-07-29T12:52:00;25.67;56.93
73665;DHT22;61964;52.052;4.474;2023-07-29T12:54:26;25.59;58.50
73665;DHT22;61964;52.052;4.474;2023-07-29T12:56:52;25.11;58.53
73665;DHT22;61964;52.052;4.474;2023-07-29T12:59:18;24.67;60.07
73665;DHT22;61964;52.052;4.474;2023-07-29T13:01:43;25.31;58.71
73665;DHT22;61964;52.052;4.474;2023-07-29T13:04:26;25.09;59.44
73665;DHT22;61964;52.052;4.474;2023-07-29T13:06:55;24.80;58.82
73665;DHT22;61964;52.052;4.474;2023-07-29T13:09:21;24.56;59.65
73665;DHT22;61964;52.052;4.474;2023-07-29T13:11:58;24.43;61.48
73665;DHT22;61964;52.052;4.474;2023-07-29T13:14:46;24.90;60.11
73665;DHT22;61964;52.052;4.474;2023-07-29T13:17:11;25.45;58.03
73665;DHT22;61964;52.052;4.474;2023-07-29T13:19:37;25.60;56.66
73665;DHT22;61964;52.052;4.474;2023-07-29T13:22:03;25.16;56.86
73665;DHT22;61964;52.052;4.474;2023-07-29T13:24:29;25.39;57.30
73665;DHT22;61964;52.052;4.474;2023-07-29T13:26:54;25.21;58.71
73665;DHT22;61964;52.052;4.474;2023-07-29T13:29:20;25.52;55.78
73665;DHT22;61964;52.052;4.474;2023-07-29T13:31:46;25.35;56.06
73665;DHT22;61964;52.052;4.474;2023-07-29T13:34:11;25.31;56.71
73665;DHT22;61964;52.052;4.474;2023-07-29T13:36:37;25.05;58.43
73665;DHT22;61964;52.052;4.474;2023-07-29T13:39:03;25.46;56.45
73665;DHT22;61964;52.052;4.474;2023-07-29T13:41:29;25.53;55.37
73665;DHT22;61964;52.052;4.474;2023-07-29T13:43:55;25.69;54.79
73665;DHT22;61964;52.052;4.474;2023-07-29T13:46:20;25.79;53.84
73665;DHT22;61964;52.052;4.474;2023-07-29T13:48:46;26.00;53.50
73665;DHT22;61964;52.052;4.474;2023-07-29T13:51:12;25.65;52.89
73665;DHT22;61964;52.052;4.474;2023-07-29T13:53:38;26.21;52.54
73665;DHT22;61964;52.052;4.474;2023-07-29T13:56:04;26.49;48.39
73665;DHT22;61964;52.052;4.474;2023-07-29T13:58:30;26.40;49.23
73665;DHT22;61964;52.052;4.474;2023-07-29T14:00:56;26.82;48.85
73665;DHT22;61964;52.052;4.474;2023-07-29T14:03:21;27.22;47.89
73665;DHT22;61964;52.052;4.474;2023-07-29T14:05:47;26.96;48.79
73665;DHT22;61964;52.052;4.474;2023-07-29T14:08:14;27.19;52.23
73665;DHT22;61964;52.052;4.474;2023-07-29T14:10:41;26.99;47.59
73665;DHT22;61964;52.052;4.474;2023-07-29T14:13:10;27.12;48.69
73665;DHT22;61964;52.052;4.474;2023-07-29T14:15:54;27.04;46.70
73665;DHT22;61964;52.052;4.474;2023-07-29T14:18:23;26.85;48.80
73665;DHT22;61964;52.052;4.474;2023-07-29T14:20:52;26.51;47.75
73665;DHT22;61964;52.052;4.474;2023-07-29T14:23:17;26.34;48.78
73665;DHT22;61964;52.052;4.474;2023-07-29T14:25:43;26.25;49.42
73665;DHT22;61964;52.052;4.474;2023-07-29T14:28:08;26.34;49.97
73665;DHT22;61964;52.052;4.474;2023-07-29T14:30:34;26.38;49.61
73665;DHT22;61964;52.052;4.474;2023-07-29T14:33:01;26.49;50.77
73665;DHT22;61964;52.052;4.474;2023-07-29T14:35:26;26.42;52.45
73665;DHT22;61964;52.052;4.474;2023-07-29T14:37:52;26.67;50.81
73665;DHT22;61964;52.052;4.474;2023-07-29T14:40:17;26.59;49.81
73665;DHT22;61964;52.052;4.474;2023-07-29T14:42:43;26.38;49.16
73665;DHT22;61964;52.052;4.474;2023-07-29T14:45:09;25.84;51.45
73665;DHT22;61964;52.052;4.474;2023-07-29T14:47:35;25.46;52.45
73665;DHT22;61964;52.052;4.474;2023-07-29T14:50:01;25.39;53.71
73665;DHT22;61964;52.052;4.474;2023-07-29T14:52:26;25.28;56.02
73665;DHT22;61964;52.052;4.474;2023-07-29T14:54:52;25.50;55.80
73665;DHT22;61964;52.052;4.474;2023-07-29T14:57:18;25.52;56.78
73665;DHT22;61964;52.052;4.474;2023-07-29T14:59:43;25.59;55.83
73665;DHT22;61964;52.052;4.474;2023-07-29T15:02:09;25.60;56.19
73665;DHT22;61964;52.052;4.474;2023-07-29T15:04:35;25.59;55.48
73665;DHT22;61964;52.052;4.474;2023-07-29T15:07:02;25.53;55.79
73665;DHT22;61964;52.052;4.474;2023-07-29T15:09:28;25.45;56.37
73665;DHT22;61964;52.052;4.474;2023-07-29T15:11:54;25.23;57.12
73665;DHT22;61964;52.052;4.474;2023-07-29T15:14:19;24.94;56.79
73665;DHT22;61964;52.052;4.474;2023-07-29T15:16:45;24.67;57.94
73665;DHT22;61964;52.052;4.474;2023-07-29T15:19:11;24.59;59.66
73665;DHT22;61964;52.052;4.474;2023-07-29T15:21:36;24.77;58.33
73665;DHT22;61964;52.052;4.474;2023-07-29T15:24:02;24.71;58.21
73665;DHT22;61964;52.052;4.474;2023-07-29T15:26:28;24.82;59.08
73665;DHT22;61964;52.052;4.474;2023-07-29T15:28:54;24.90;60.16
73665;DHT22;61964;52.052;4.474;2023-07-29T15:31:19;25.07;59.90
73665;DHT22;61964;52.052;4.474;2023-07-29T15:33:45;25.26;56.91
73665;DHT22;61964;52.052;4.474;2023-07-29T15:36:10;25.23;56.27
73665;DHT22;61964;52.052;4.474;2023-07-29T15:38:36;25.08;54.10
73665;DHT22;61964;52.052;4.474;2023-07-29T15:41:02;24.96;54.50
73665;DHT22;61964;52.052;4.474;2023-07-29T15:43:28;24.82;53.74
73665;DHT22;61964;52.052;4.474;2023-07-29T15:45:54;24.74;51.42